createdAt,value
2023-01-21T00:00:38.192Z,30.59
2023-01-21T00:03:48.470Z,29.16
2023-01-21T00:06:54.602Z,33.12
2023-01-21T00:10:01.572Z,35.74
2023-01-21T00:13:07.810Z,35.52
2023-01-21T00:16:15.987Z,35.43
2023-01-21T00:19:24.860Z,34.92
2023-01-21T00:22:31.907Z,33.55
2023-01-21T00:25:37.923Z,33.21
2023-01-21T00:28:46.868Z,35.34
2023-01-21T00:31:53.678Z,34.80
2023-01-21T00:35:03.138Z,35.73
2023-01-21T00:38:09.224Z,35.31
2023-01-21T00:41:17.669Z,36.39
2023-01-21T00:44:23.845Z,34.53
2023-01-21T00:47:30.707Z,35.59
2023-01-21T00:50:39.286Z,31.76
2023-01-21T00:53:46.068Z,32.32
2023-01-21T00:56:51.990Z,33.39
2023-01-21T00:59:58.881Z,31.48
2023-01-21T01:03:04.905Z,31.29
2023-01-21T01:06:18.408Z,30.63
2023-01-21T01:09:24.446Z,30.28
2023-01-21T01:12:32.358Z,29.11
2023-01-21T01:15:40.830Z,28.79
2023-01-21T01:18:48.941Z,26.37
2023-01-21T01:21:57.584Z,25.73
2023-01-21T01:25:04.463Z,25.66
2023-01-21T01:28:10.632Z,24.17
2023-01-21T01:31:20.741Z,25.18
2023-01-21T01:34:27.070Z,24.46
2023-01-21T01:37:36.525Z,24.91
2023-01-21T01:40:43.502Z,24.11
2023-01-21T01:43:59.380Z,22.48
2023-01-21T01:47:08.238Z,22.62
2023-01-21T01:50:21.095Z,23.40
2023-01-21T01:53:33.608Z,24.47
2023-01-21T01:56:48.113Z,23.46
2023-01-21T01:59:54.901Z,22.46
2023-01-21T02:03:14.176Z,23.57
2023-01-21T02:06:22.365Z,23.01
2023-01-21T02:09:31.855Z,23.76
2023-01-21T02:12:41.693Z,24.77
2023-01-21T02:16:15.882Z,23.34
2023-01-21T02:20:04.184Z,23.48
2023-01-21T02:23:23.264Z,22.44
2023-01-21T02:27:18.055Z,22.15
2023-01-21T02:31:06.701Z,23.56
2023-01-21T02:34:30.538Z,26.10
2023-01-21T02:37:51.239Z,28.36
2023-01-21T02:41:13.907Z,26.66
2023-01-21T02:44:38.194Z,29.17
2023-01-21T02:48:06.202Z,30.13
2023-01-21T02:51:16.515Z,28.45
2023-01-21T02:54:57.025Z,29.40
2023-01-21T02:58:10.762Z,29.96
2023-01-21T03:01:40.081Z,28.32
2023-01-21T03:05:12.100Z,28.75
2023-01-21T03:08:30.620Z,26.79
2023-01-21T03:11:37.207Z,26.01
2023-01-21T03:15:10.997Z,27.13
2023-01-21T03:18:29.665Z,27.29
2023-01-21T03:21:39.642Z,25.87
2023-01-21T03:24:54.625Z,24.77
2023-01-21T03:28:09.708Z,25.34
2023-01-21T03:31:26.898Z,26.55
2023-01-21T03:34:44.809Z,27.68
2023-01-21T03:37:57.864Z,29.41
2023-01-21T03:41:17.668Z,25.90
2023-01-21T03:44:24.334Z,28.81
2023-01-21T03:47:37.825Z,29.33
2023-01-21T03:50:55.801Z,30.76
2023-01-21T03:54:03.494Z,29.71
2023-01-21T03:57:12.116Z,28.24
2023-01-21T04:00:20.928Z,24.81
2023-01-21T04:03:27.317Z,26.79
2023-01-21T04:06:34.268Z,27.52
2023-01-21T04:09:40.357Z,31.59
2023-01-21T04:12:49.843Z,27.28
2023-01-21T04:15:55.811Z,32.00
2023-01-21T04:19:02.687Z,28.36
2023-01-21T04:22:08.757Z,29.43
2023-01-21T04:25:15.688Z,24.78
2023-01-21T04:28:24.605Z,22.32
2023-01-21T04:31:31.543Z,21.65
2023-01-21T04:34:37.901Z,22.20
2023-01-21T04:37:44.709Z,22.91
2023-01-21T04:40:50.767Z,23.15
2023-01-21T04:44:00.336Z,21.46
2023-01-21T04:47:06.398Z,21.63
2023-01-21T04:50:17.811Z,19.54
2023-01-21T04:53:23.951Z,21.17
2023-01-21T04:56:30.893Z,23.67
2023-01-21T04:59:39.502Z,18.88
2023-01-21T05:02:46.321Z,20.21
2023-01-21T05:05:52.420Z,20.59
2023-01-21T05:08:59.291Z,20.48
2023-01-21T05:12:05.317Z,19.82
2023-01-21T05:15:15.780Z,18.85
2023-01-21T05:18:21.737Z,18.30
2023-01-21T05:21:28.701Z,17.86
2023-01-21T05:24:34.836Z,16.57
2023-01-21T05:27:41.714Z,15.88
2023-01-21T05:30:50.340Z,16.93
2023-01-21T05:33:57.300Z,18.03
2023-01-21T05:37:03.232Z,16.65
2023-01-21T05:40:12.319Z,17.99
2023-01-21T05:43:18.460Z,19.51
2023-01-21T05:46:28.202Z,19.41
2023-01-21T05:49:34.272Z,18.82
2023-01-21T05:52:42.043Z,18.53
2023-01-21T05:55:48.123Z,19.67
2023-01-21T05:58:54.952Z,20.48
2023-01-21T06:02:03.571Z,18.24
2023-01-21T06:05:11.508Z,18.45
2023-01-21T06:08:17.542Z,18.95
2023-01-21T06:11:24.435Z,18.71
2023-01-21T06:14:30.466Z,19.27
2023-01-21T06:17:42.394Z,18.46
2023-01-21T06:20:48.367Z,18.13
2023-01-21T06:23:55.169Z,17.16
2023-01-21T06:27:01.175Z,17.08
2023-01-21T06:30:10.810Z,17.19
2023-01-21T06:33:19.407Z,20.25
2023-01-21T06:36:26.310Z,19.89
2023-01-21T06:39:32.265Z,17.28
2023-01-21T06:42:39.117Z,18.25
2023-01-21T06:45:45.379Z,18.56
2023-01-21T06:48:55.029Z,18.51
2023-01-21T06:52:01.076Z,19.51
2023-01-21T06:55:09.446Z,22.48
2023-01-21T06:58:15.558Z,21.26
2023-01-21T07:01:22.562Z,19.55
2023-01-21T07:04:31.919Z,23.33
2023-01-21T07:07:39.620Z,22.84
2023-01-21T07:10:47.744Z,25.49
2023-01-21T07:13:54.842Z,29.24
2023-01-21T07:17:00.922Z,31.31
2023-01-21T07:20:15.050Z,30.45
2023-01-21T07:23:21.375Z,29.09
2023-01-21T07:26:28.371Z,27.31
2023-01-21T07:29:34.421Z,29.19
2023-01-21T07:32:41.285Z,24.84
2023-01-21T07:35:50.271Z,26.73
2023-01-21T07:38:57.916Z,30.95
2023-01-21T07:42:04.308Z,29.52
2023-01-21T07:45:12.990Z,27.97
2023-01-21T07:48:19.044Z,28.29
2023-01-21T07:51:28.643Z,26.37
2023-01-21T07:54:35.248Z,26.63
2023-01-21T07:57:42.274Z,25.65
2023-01-21T08:00:48.369Z,24.32
2023-01-21T08:03:55.198Z,26.38
2023-01-21T08:07:11.971Z,26.36
2023-01-21T08:10:22.447Z,29.52
2023-01-21T08:13:29.233Z,33.32
2023-01-21T08:16:36.135Z,37.25
2023-01-21T08:19:42.177Z,45.56
2023-01-21T08:22:51.625Z,40.91
2023-01-21T08:25:58.357Z,45.22
2023-01-21T08:29:05.270Z,34.73
2023-01-21T08:32:11.530Z,38.06
2023-01-21T08:35:18.825Z,35.31
2023-01-21T08:38:27.648Z,58.88
2023-01-21T08:41:35.151Z,73.19
2023-01-21T08:44:41.148Z,40.57
2023-01-21T08:47:48.102Z,47.56
2023-01-21T08:50:54.238Z,61.02
2023-01-21T08:54:05.376Z,48.93
2023-01-21T08:57:11.632Z,53.43
2023-01-21T09:00:19.978Z,39.72
2023-01-21T09:03:27.322Z,51.55
2023-01-21T09:06:34.353Z,41.06
2023-01-21T09:09:43.027Z,44.20
2023-01-21T09:12:49.999Z,34.07
2023-01-21T09:15:56.512Z,47.60
2023-01-21T09:19:04.091Z,41.61
2023-01-21T09:22:10.440Z,36.17
2023-01-21T09:25:23.088Z,39.74
2023-01-21T09:28:30.178Z,30.77
2023-01-21T09:31:37.300Z,36.06
2023-01-21T09:34:43.404Z,41.26
2023-01-21T09:37:50.264Z,53.10
2023-01-21T09:41:07.592Z,47.68
2023-01-21T09:44:27.933Z,57.87
2023-01-21T09:47:43.165Z,50.66
2023-01-21T09:50:56.573Z,34.50
2023-01-21T09:54:03.817Z,40.70
2023-01-21T09:57:37.213Z,45.44
2023-01-21T10:00:55.709Z,42.20
2023-01-21T10:04:22.416Z,50.12
2023-01-21T10:07:37.735Z,45.46
2023-01-21T10:10:54.337Z,48.44
2023-01-21T10:14:28.026Z,39.68
2023-01-21T10:17:54.963Z,31.23
2023-01-21T10:21:09.716Z,38.30
2023-01-21T10:24:24.225Z,38.64
2023-01-21T10:27:38.392Z,39.86
2023-01-21T10:30:55.020Z,51.36
2023-01-21T10:34:01.097Z,43.30
2023-01-21T10:37:28.204Z,39.83
2023-01-21T10:40:49.347Z,49.70
2023-01-21T10:44:10.849Z,53.60
2023-01-21T10:47:36.729Z,40.67
2023-01-21T10:50:57.465Z,33.54
2023-01-21T10:54:21.578Z,38.10
2023-01-21T10:57:57.136Z,33.50
2023-01-21T11:01:10.910Z,94.58
2023-01-21T11:04:25.768Z,86.72
2023-01-21T11:07:43.528Z,69.13
2023-01-21T11:10:56.349Z,53.20
2023-01-21T11:14:02.765Z,54.69
2023-01-21T11:17:10.158Z,57.93
2023-01-21T11:20:28.313Z,67.52
2023-01-21T11:23:39.470Z,96.37
2023-01-21T11:26:55.617Z,48.04
2023-01-21T11:30:02.803Z,49.39
2023-01-21T11:33:23.452Z,66.29
2023-01-21T11:36:33.083Z,49.96
2023-01-21T11:39:53.759Z,48.64
2023-01-21T11:43:00.886Z,54.85
2023-01-21T11:46:29.674Z,50.69
2023-01-21T11:49:36.707Z,44.78
2023-01-21T11:52:45.826Z,58.48
2023-01-21T11:55:57.299Z,72.52
2023-01-21T11:59:03.672Z,53.42
2023-01-21T12:02:22.180Z,37.25
2023-01-21T12:05:39.165Z,38.03
2023-01-21T12:08:55.600Z,38.18
2023-01-21T12:12:33.168Z,23.93
2023-01-21T12:16:14.488Z,23.48
2023-01-21T12:19:57.131Z,57.89
2023-01-21T12:23:41.106Z,41.71
2023-01-21T12:27:04.552Z,41.19
2023-01-21T12:30:32.755Z,31.86
2023-01-21T12:33:58.184Z,40.82
2023-01-21T12:37:17.283Z,40.87
2023-01-21T12:40:34.167Z,35.46
2023-01-21T12:43:49.881Z,29.87
2023-01-21T12:47:06.005Z,31.86
2023-01-21T12:50:36.285Z,33.43
2023-01-21T12:53:52.287Z,31.52
2023-01-21T12:57:16.790Z,37.66
2023-01-21T13:00:32.887Z,42.68
2023-01-21T13:03:58.286Z,28.53
2023-01-21T13:07:22.539Z,26.71
2023-01-21T13:10:38.982Z,30.28
2023-01-21T13:13:57.348Z,27.35
2023-01-21T13:17:17.864Z,39.28
2023-01-21T13:20:27.018Z,71.72
2023-01-21T13:23:46.478Z,120.51
2023-01-21T13:27:10.144Z,99.33
2023-01-21T13:30:32.287Z,30.90
2023-01-21T13:33:59.600Z,24.28
2023-01-21T13:37:27.004Z,71.71
2023-01-21T13:40:50.610Z,88.73
2023-01-21T13:44:41.732Z,48.18
2023-01-21T13:48:28.663Z,31.61
2023-01-21T13:52:03.012Z,30.17
2023-01-21T13:55:34.419Z,53.47
2023-01-21T13:58:54.647Z,59.25
2023-01-21T14:02:11.857Z,63.10
2023-01-21T14:05:32.899Z,54.35
2023-01-21T14:08:53.086Z,57.74
2023-01-21T14:12:12.746Z,89.95
2023-01-21T14:16:02.470Z,90.80
2023-01-21T14:19:59.198Z,67.50
2023-01-21T14:23:42.692Z,58.25
2023-01-21T14:27:19.500Z,63.12
2023-01-21T14:30:34.517Z,55.20
2023-01-21T14:33:51.478Z,82.20
2023-01-21T14:37:11.621Z,43.59
2023-01-21T14:40:30.062Z,52.50
2023-01-21T14:43:56.933Z,71.85
2023-01-21T14:47:23.482Z,86.13
2023-01-21T14:50:50.121Z,87.62
2023-01-21T14:54:05.061Z,68.07
2023-01-21T14:57:29.891Z,52.69
2023-01-21T15:00:41.351Z,49.80
2023-01-21T15:03:54.140Z,50.80
2023-01-21T15:07:11.504Z,51.90
2023-01-21T15:10:24.538Z,47.00
2023-01-21T15:13:42.169Z,61.43
2023-01-21T15:16:51.924Z,62.99
2023-01-21T15:20:01.560Z,57.51
2023-01-21T15:23:20.486Z,53.80
2023-01-21T15:26:36.690Z,55.85
2023-01-21T15:29:45.295Z,50.05
2023-01-21T15:32:55.629Z,51.28
2023-01-21T15:36:06.241Z,52.47
2023-01-21T15:39:19.279Z,47.63
2023-01-21T15:42:40.241Z,52.02
2023-01-21T15:46:04.599Z,56.64
2023-01-21T15:49:37.962Z,65.11
2023-01-21T15:53:17.079Z,59.24
2023-01-21T15:56:49.047Z,81.92
2023-01-21T16:00:32.819Z,90.13
2023-01-21T16:03:49.156Z,93.27
2023-01-21T16:07:22.476Z,93.87
2023-01-21T16:10:42.457Z,93.22
2023-01-21T16:14:06.361Z,85.26
2023-01-21T16:17:30.645Z,99.24
2023-01-21T16:20:38.867Z,87.60
2023-01-21T16:23:47.974Z,89.28
2023-01-21T16:26:54.963Z,82.96
2023-01-21T16:30:03.028Z,95.79
2023-01-21T16:33:16.145Z,106.33
2023-01-21T16:36:22.614Z,135.63
2023-01-21T16:39:32.206Z,140.32
2023-01-21T16:42:41.578Z,147.80
2023-01-21T16:45:55.175Z,143.31
2023-01-21T16:49:05.010Z,132.33
2023-01-21T16:52:24.681Z,135.74
2023-01-21T16:55:34.878Z,151.16
2023-01-21T16:58:50.808Z,157.37
2023-01-21T17:01:59.980Z,140.70
2023-01-21T17:05:09.128Z,133.65
2023-01-21T17:08:18.924Z,130.10
2023-01-21T17:11:28.864Z,127.90
2023-01-21T17:14:38.213Z,132.10
2023-01-21T17:17:45.775Z,141.52
2023-01-21T17:21:02.839Z,146.54
2023-01-21T17:24:22.663Z,161.64
2023-01-21T17:27:34.275Z,156.28
2023-01-21T17:30:42.070Z,135.18
2023-01-21T17:33:51.066Z,137.26
2023-01-21T17:36:59.874Z,124.05
2023-01-21T17:40:06.632Z,133.39
2023-01-21T17:43:24.815Z,165.85
2023-01-21T17:46:32.798Z,167.70
2023-01-21T17:49:39.936Z,149.66
2023-01-21T17:52:53.998Z,129.77
2023-01-21T17:56:05.222Z,114.59
2023-01-21T17:59:37.911Z,114.00
2023-01-21T18:02:44.930Z,119.52
2023-01-21T18:05:51.615Z,119.63
2023-01-21T18:09:00.775Z,120.90
2023-01-21T18:12:07.503Z,126.14
2023-01-21T18:15:21.134Z,119.01
2023-01-21T18:18:33.760Z,110.76
2023-01-21T18:21:40.725Z,121.11
2023-01-21T18:24:46.767Z,129.38
2023-01-21T18:27:54.892Z,113.22
2023-01-21T18:31:04.297Z,111.30
2023-01-21T18:34:16.481Z,118.00
2023-01-21T18:37:27.975Z,110.91
2023-01-21T18:40:37.396Z,109.80
2023-01-21T18:43:43.499Z,113.98
2023-01-21T18:46:53.364Z,105.69
2023-01-21T18:50:03.174Z,91.11
2023-01-21T18:53:10.357Z,91.69
2023-01-21T18:56:19.048Z,87.83
2023-01-21T18:59:26.266Z,100.47
2023-01-21T19:02:35.089Z,105.83
2023-01-21T19:05:45.944Z,96.56
2023-01-21T19:08:52.096Z,88.13
2023-01-21T19:11:58.997Z,90.66
2023-01-21T19:15:05.598Z,94.50
2023-01-21T19:18:19.693Z,121.60
2023-01-21T19:21:25.910Z,125.60
2023-01-21T19:24:33.767Z,148.85
2023-01-21T19:27:44.971Z,187.19
2023-01-21T19:30:55.739Z,138.74
2023-01-21T19:34:04.491Z,129.03
2023-01-21T19:37:17.294Z,124.82
2023-01-21T19:40:26.234Z,147.81
2023-01-21T19:43:33.535Z,136.53
2023-01-21T19:46:39.807Z,150.18
2023-01-21T19:49:50.504Z,180.37
2023-01-21T19:52:58.027Z,125.37
2023-01-21T19:56:07.298Z,114.60
2023-01-21T19:59:18.461Z,124.72
2023-01-21T20:02:25.511Z,130.51
2023-01-21T20:05:36.650Z,173.71
2023-01-21T20:08:44.183Z,225.66
2023-01-21T20:11:51.430Z,197.35
2023-01-21T20:14:58.585Z,166.24
2023-01-21T20:18:08.098Z,157.10
2023-01-21T20:21:18.330Z,150.99
2023-01-21T20:24:24.584Z,159.67
2023-01-21T20:27:31.681Z,188.27
2023-01-21T20:30:37.948Z,186.13
2023-01-21T20:33:45.045Z,175.01
2023-01-21T20:36:59.602Z,150.51
2023-01-21T20:40:07.061Z,151.68
2023-01-21T20:43:14.113Z,154.62
2023-01-21T20:46:26.514Z,161.18
2023-01-21T20:49:32.888Z,160.54
2023-01-21T20:52:42.551Z,149.30
2023-01-21T20:55:51.619Z,143.58
2023-01-21T20:58:59.019Z,139.08
2023-01-21T21:02:05.403Z,140.85
2023-01-21T21:05:13.579Z,139.84
2023-01-21T21:08:25.229Z,134.19
2023-01-21T21:11:32.197Z,135.11
2023-01-21T21:14:39.029Z,126.73
2023-01-21T21:17:47.210Z,124.06
2023-01-21T21:20:55.423Z,125.02
2023-01-21T21:24:06.780Z,124.45
2023-01-21T21:27:14.872Z,120.06
2023-01-21T21:30:27.741Z,119.22
2023-01-21T21:33:33.986Z,119.72
2023-01-21T21:36:43.773Z,121.02
2023-01-21T21:39:52.622Z,116.52
2023-01-21T21:43:12.852Z,120.05
2023-01-21T21:46:31.402Z,120.42
2023-01-21T21:49:38.676Z,118.91
2023-01-21T21:52:44.849Z,120.68
2023-01-21T21:55:54.451Z,118.90
2023-01-21T21:59:00.858Z,117.71
2023-01-21T22:02:08.630Z,120.87
2023-01-21T22:05:14.822Z,121.46
2023-01-21T22:08:22.022Z,113.61
2023-01-21T22:11:32.832Z,116.51
2023-01-21T22:14:39.961Z,122.06
2023-01-21T22:17:46.879Z,128.52
2023-01-21T22:20:56.554Z,127.67
2023-01-21T22:24:03.967Z,129.12
2023-01-21T22:27:14.180Z,125.99
2023-01-21T22:30:21.309Z,130.61
2023-01-21T22:33:28.338Z,131.18
2023-01-21T22:36:35.461Z,130.02
2023-01-21T22:39:42.627Z,131.90
2023-01-21T22:42:51.599Z,135.69
2023-01-21T22:46:01.352Z,135.04
2023-01-21T22:49:07.713Z,135.99
2023-01-21T22:52:16.931Z,136.32
2023-01-21T22:55:23.157Z,136.26
2023-01-21T22:58:35.777Z,142.16
2023-01-21T23:01:42.232Z,145.07
2023-01-21T23:05:05.321Z,142.84
2023-01-21T23:08:14.501Z,151.35
2023-01-21T23:11:23.632Z,139.81
2023-01-21T23:14:32.454Z,133.98
2023-01-21T23:17:39.512Z,132.89
2023-01-21T23:20:46.253Z,134.45
2023-01-21T23:23:53.969Z,133.46
2023-01-21T23:27:00.200Z,127.96
2023-01-21T23:30:12.769Z,126.09
2023-01-21T23:33:19.096Z,126.70
2023-01-21T23:36:26.977Z,125.95
2023-01-21T23:39:33.177Z,125.31
2023-01-21T23:42:41.128Z,124.32
2023-01-21T23:45:49.918Z,123.68
2023-01-21T23:48:57.236Z,124.43
2023-01-21T23:52:05.362Z,123.41
2023-01-21T23:55:14.907Z,121.56
2023-01-21T23:58:21.003Z,119.86
